Weather observations for the past three days for
Parsons, Tri-City Airport
| Date | Time (cdt) | Wind (kph) | Vis. (km) | Weather | Sky Cond. | Temperature (ºC) | Relative Humidity | Wind Chill (°C) | Heat Index (°C) | Pressure | Precipitation (cm) | ||||||
|---|---|---|---|---|---|---|---|---|---|---|---|---|---|---|---|---|---|
| Air | Dwpt | 6 hour | altimeter (cm) | sea level (mb) | 1 hr | 3 hr | 6 hr | ||||||||||
| Max. | Min. | ||||||||||||||||
| 10 | 10:52 | NE 24 G 41 | 16.09 | Fair | CLR | 18.9 | 3.9 | 37% | 76.5 | 1019.4 | |||||||
| 10 | 09:52 | NE 20 | 16.09 | Partly Cloudy | FEW055 SCT100 | 16.7 | 5 | 46% | 76.48 | 1018.9 | |||||||
| 10 | 08:52 | NE 19 | 16.09 | Partly Cloudy | SCT110 | 15.6 | 6.7 | 56% | 76.45 | 1018.6 | |||||||
| 10 | 07:52 | NE 22 G 33 | 16.09 | Fair | CLR | 16.1 | 7.8 | 58% | 76.33 | 1017.0 | |||||||
| 10 | 06:52 | NE 19 | 16.09 | Fair | CLR | 16.7 | 7.8 | 18.3 | 16.1 | 56% | 76.2 | 1015.2 | |||||
| 10 | 05:52 | NE 19 G 43 | 16.09 | Fair | CLR | 16.7 | 8.9 | 60% | 76.12 | 1013.9 | |||||||
| 10 | 04:52 | NE 15 | 16.09 | Fair | CLR | 17.2 | 9.4 | 60% | 76.05 | 1013.1 | |||||||
| 10 | 03:52 | NE 9 | 16.09 | Fair | CLR | 17.8 | 10 | 60% | 76 | 1012.3 | |||||||
| 10 | 02:52 | NE 9 | 16.09 | Fair | CLR | 18.3 | 11.1 | 63% | 75.97 | 1011.8 | |||||||
| 10 | 01:52 | Calm | 16.09 | Fair | CLR | 17.8 | 11.1 | 65% | 75.97 | 1012.1 | |||||||
| 10 | 00:52 | N 6 | 16.09 | Fair | CLR | 17.8 | 11.7 | 26.1 | 17.8 | 68% | 75.92 | 1011.3 | |||||
| 09 | 23:52 | S 7 | 16.09 | Mostly Cloudy | SCT095 BKN120 | 20.6 | 11.7 | 57% | 75.9 | 1010.7 | |||||||
| 09 | 22:52 | Calm | 16.09 | A Few Clouds | FEW070 | 18.9 | 13.9 | 73% | 75.97 | 1011.9 | |||||||
| 09 | 21:52 | Calm | 16.09 | A Few Clouds | FEW090 | 18.9 | 13.3 | 70% | 75.87 | 1010.9 | |||||||
| 09 | 20:52 | S 6 | 16.09 | Fair | CLR | 20 | 11.7 | 59% | 75.77 | 1009.7 | |||||||
| 09 | 19:52 | S 7 | 16.09 | Fair | CLR | 22.2 | 12.2 | 53% | 75.69 | 1008.4 | |||||||
| 09 | 18:52 | S 11 | 16.09 | Fair | CLR | 26.1 | 11.7 | 28.3 | 26.1 | 41% | 26 | 75.67 | 1008.2 | ||||
| 09 | 17:52 | S 20 | 16.09 | Fair | CLR | 27.2 | 11.1 | 37% | 27 | 75.67 | 1008.1 | ||||||
| 09 | 16:52 | S 11 | 16.09 | Fair | CLR | 27.8 | 10.6 | 34% | 27 | 75.67 | 1008.0 | ||||||
| 09 | 15:52 | S 15 | 16.09 | Fair | CLR | 28.3 | 10 | 32% | 27 | 75.72 | 0.0 | ||||||
| 09 | 14:52 | Vrbl 11 G 37 | 16.09 | Fair | CLR | 27.8 | 10.6 | 34% | 27 | 75.74 | 1009.2 | ||||||
| 09 | 13:52 | Vrbl 9 | 16.09 | Fair | CLR | 27.2 | 10.6 | 35% | 27 | 75.79 | 1009.7 | ||||||
| 09 | 12:52 | S 11 | 16.09 | Fair | CLR | 26.7 | 10 | 27.2 | 8.3 | 35% | 26 | 75.82 | 1010.0 | ||||
| 09 | 11:52 | W 13 | 16.09 | Fair | CLR | 25.6 | 11.1 | 40% | 26 | 75.84 | 1010.4 | ||||||
| 09 | 10:52 | W 7 | 16.09 | Fair | CLR | 23.3 | 12.8 | 52% | 75.84 | 1010.5 | |||||||
| 09 | 09:52 | Calm | 16.09 | Fair | CLR | 20.6 | 15 | 70% | 75.84 | 1010.5 | |||||||
| 09 | 08:52 | Calm | 16.09 | Fair | CLR | 15 | 14.4 | 96% | 75.84 | 1010.6 | |||||||
| 09 | 07:52 | Calm | 3.22 | Fog/Mist | BKN001 | 12.2 | 11.7 | 97% | 75.82 | 1010.2 | |||||||
| 09 | 06:52 | Calm | 0.40 | Fog | VV001 | 8.3 | 8.3 | 12.2 | 7.8 | 100% | 75.77 | 1009.9 | |||||
| 09 | 05:52 | Calm | 0.40 | Fog | VV001 | 8.3 | 8.3 | 100% | 75.74 | 1009.5 | |||||||
| 09 | 04:52 | Calm | 0.40 | Fog | VV001 | 9.4 | 9.4 | 100% | 75.77 | 1009.5 | |||||||
| 09 | 02:52 | Calm | 0.40 | Fog | VV001 | 11.1 | 11.1 | 100% | 75.77 | 1009.5 | |||||||
| 09 | 01:52 | Calm | 0.40 | Fog | VV001 | 11.1 | 11.1 | 100% | 75.77 | 1009.5 | |||||||
| 09 | 00:52 | Calm | 0.40 | Fog | VV002 | 11.7 | 11.7 | 20.6 | 10.6 | 100% | 75.79 | 1009.9 | |||||
| 08 | 23:52 | Calm | 2.01 | Fog/Mist | FEW002 | 11.7 | 11.7 | 100% | 75.82 | 1010.1 | |||||||
| 08 | 22:52 | Calm | 1.21 | Fog/Mist | CLR | 12.8 | 12.8 | 100% | 75.79 | 1009.7 | |||||||
| 08 | 21:52 | Calm | 4.83 | Fog/Mist | CLR | 14.4 | 14.4 | 100% | 75.72 | 1008.9 | |||||||
| 08 | 20:52 | Calm | 16.09 | Fair | CLR | 16.1 | 15.6 | 97% | 75.64 | 1008.0 | |||||||
| 08 | 19:52 | N 9 | 16.09 | Fair | CLR | 18.9 | 16.1 | 84% | 75.59 | 1007.4 | |||||||
| 08 | 18:52 | W 7 | 16.09 | Fair | CLR | 20.6 | 15.6 | 25.6 | 18.3 | 73% | 75.54 | 1006.5 | 0.18 | 0.18 | |||
| 08 | 17:52 | W 7 | 16.09 | Thunderstorm in Vicinity | FEW050 SCT095 BKN120 | 20.6 | 13.9 | 66% | 75.54 | 1006.6 | |||||||
| 08 | 16:52 | S 15 | 16.09 | A Few Clouds | FEW090 | 22.2 | 13.3 | 57% | 75.51 | 1006.1 | |||||||
| 08 | 15:52 | SW 15 | 16.09 | A Few Clouds | FEW110 | 23.3 | 12.2 | 50% | 75.59 | 1007.2 | |||||||
| 08 | 14:52 | SW 17 G 33 | 16.09 | Mostly Cloudy | BKN095 | 24.4 | 12.8 | 48% | 26 | 75.64 | 1007.9 | ||||||
| 08 | 13:52 | SW 28 G 41 | 16.09 | Fair | CLR | 25.6 | 13.3 | 47% | 26 | 75.64 | 1007.8 | ||||||
| 08 | 12:52 | SW 24 G 41 | 16.09 | Fair | CLR | 23.3 | 12.2 | 23.9 | 11.1 | 50% | 75.69 | 1008.7 | |||||
| 08 | 11:52 | S 20 G 41 | 16.09 | Fair | CLR | 22.8 | 12.8 | 53% | 75.79 | 1010.0 | |||||||
| 08 | 10:52 | S 28 G 43 | 16.09 | Fair | CLR | 21.1 | 11.7 | 55% | 75.82 | 1010.3 | |||||||
| 08 | 09:52 | SW 19 | 16.09 | Fair | CLR | 18.9 | 11.7 | 63% | 75.87 | 1010.9 | |||||||
| 08 | 08:52 | S 13 | 16.09 | Fair | CLR | 15.6 | 9.4 | 67% | 75.95 | 1012.0 | |||||||
| 08 | 07:52 | S 17 | 16.09 | Fair | CLR | 13.3 | 8.9 | 75% | 75.92 | 1011.8 | |||||||
| 08 | 06:52 | S 13 | 16.09 | Fair | CLR | 11.1 | 7.8 | 13.3 | 10 | 80% | 75.92 | 1011.5 | |||||
| 08 | 05:52 | S 13 | 16.09 | Fair | CLR | 11.1 | 7.8 | 80% | 75.87 | 1011.0 | |||||||
| 08 | 04:52 | S 9 | 16.09 | Fair | CLR | 10.6 | 7.8 | 83% | 75.87 | 1010.9 | |||||||
| 08 | 03:52 | S 11 | 16.09 | Fair | CLR | 11.1 | 7.8 | 80% | 75.84 | 1010.8 | |||||||
| 08 | 02:52 | S 11 | 16.09 | Fair | CLR | 11.1 | 7.8 | 80% | 75.9 | 1011.3 | |||||||
| 08 | 01:52 | S 13 | 16.09 | Fair | CLR | 11.7 | 7.8 | 77% | 75.92 | 1011.6 | |||||||
| 08 | 00:52 | S 15 | 16.09 | Fair | CLR | 13.3 | 7.2 | 20.6 | 13.3 | 67% | 75.92 | 1011.7 | |||||
| 07 | 23:52 | S 13 | 16.09 | Fair | CLR | 13.3 | 7.2 | 67% | 75.95 | 1012.1 | |||||||
| 07 | 22:52 | S 11 | 16.09 | Fair | CLR | 15 | 6.7 | 58% | 75.97 | 1012.4 | |||||||
| 07 | 21:52 | S 13 | 16.09 | Fair | CLR | 15.6 | 7.2 | 58% | 75.97 | 1012.6 | |||||||
| 07 | 20:52 | S 11 | 16.09 | Fair | CLR | 16.7 | 7.2 | 54% | 75.95 | 1012.2 | |||||||
| 07 | 19:52 | S 9 | 16.09 | Fair | CLR | 17.8 | 7.2 | 50% | 75.92 | 1011.9 | |||||||
| 07 | 18:52 | SW 17 | 16.09 | Fair | CLR | 20.6 | 5.6 | 21.1 | 18.3 | 38% | 75.92 | 1011.9 | |||||
| 07 | 17:52 | S 19 | 16.09 | Fair | CLR | 21.1 | 5 | 35% | 75.95 | 1012.3 | |||||||
| 07 | 16:52 | SW 28 G 37 | 16.09 | Fair | CLR | 21.1 | 6.1 | 38% | 76 | 1012.9 | |||||||
| 07 | 15:52 | SW 17 G 43 | 16.09 | Fair | CLR | 21.1 | 6.7 | 39% | 76.05 | 1013.6 | |||||||
| 07 | 14:52 | W 19 | 16.09 | Fair | CLR | 20 | 6.1 | 40% | 76.15 | 1014.8 | |||||||
| 07 | 13:52 | SW 22 G 41 | 16.09 | Fair | CLR | 19.4 | 5.6 | 41% | 76.23 | 1015.9 | |||||||
| 07 | 12:52 | W 22 G 35 | 16.09 | A Few Clouds | FEW055 | 18.3 | 6.1 | 18.9 | 4.4 | 45% | 76.28 | 1016.6 | |||||
| 07 | 11:52 | SW 28 G 37 | 16.09 | Fair | CLR | 17.2 | 5 | 45% | 76.35 | 1017.6 | |||||||
| Date | Time (cdt) | Wind (kph) | Vis. (km) | Weather | Sky Cond. | Air | Dwpt | Max. | Min. | Relative Humidity | Wind Chill (°C) | Heat Index (°C) | altimeter (cm) | sea level (mb) | 1 hr | 3 hr | 6 hr |
| 6 hour | |||||||||||||||||
| Temperature (ºC) | Pressure | Precipitation (cm) | |||||||||||||||